UAL1412 KLAX-KIAH
Flight info
| Callsign | UAL1412 |
|---|---|
| Flight time | 2h 44m |
| Altitude | 37000 |
| Route | DOTSS2 CNERY BLH SPTFR Q4 FUSCO DIESL TTORO3 |
| Aircraft | B739/M-SDE2E3FGHIRWXY/LB1 |
Departure
| Time | 2026-05-06 22:30 |
|---|---|
| Airport | Los Angeles International Airport (KLAX) |
Arrival
| Time | 2026-05-07 01:15 |
|---|---|
| Airport | George Bush Intercontinental Airport (KIAH) |
| Time | Latitude | Longitude | Altitude | Speed | Heading |
|---|---|---|---|---|---|
| 2026-05-06 21:56 | 33.94069 | -118.40013 | 125 ft | 0 kts | 81° |
| 2026-05-06 22:20 | 33.94068 | -118.40024 | 123 ft | 4 kts | 80° |
| 2026-05-06 22:20 | 33.94059 | -118.40053 | 125 ft | 4 kts | 47° |
| 2026-05-06 22:20 | 33.94149 | -118.40080 | 125 ft | 0 kts | 22° |
| 2026-05-06 22:21 | 33.94144 | -118.40081 | 125 ft | 0 kts | 176° |
| 2026-05-06 22:24 | 33.94130 | -118.40080 | 123 ft | 6 kts | 176° |
| 2026-05-06 22:24 | 33.94076 | -118.40074 | 123 ft | 8 kts | 173° |
| 2026-05-06 22:24 | 33.94020 | -118.40066 | 123 ft | 8 kts | 173° |
| 2026-05-06 22:24 | 33.93964 | -118.40057 | 122 ft | 8 kts | 173° |
| 2026-05-06 22:25 | 33.93905 | -118.40035 | 122 ft | 10 kts | 139° |
| 2026-05-06 22:25 | 33.93884 | -118.39944 | 121 ft | 13 kts | 84° |
| 2026-05-06 22:25 | 33.93897 | -118.39826 | 120 ft | 16 kts | 82° |
| 2026-05-06 22:25 | 33.93911 | -118.39683 | 121 ft | 19 kts | 83° |
| 2026-05-06 22:26 | 33.93928 | -118.39505 | 122 ft | 24 kts | 83° |
| 2026-05-06 22:26 | 33.93951 | -118.39284 | 125 ft | 27 kts | 83° |
| 2026-05-06 22:26 | 33.93974 | -118.39065 | 125 ft | 26 kts | 83° |
| 2026-05-06 22:26 | 33.93995 | -118.38859 | 125 ft | 24 kts | 81° |
| 2026-05-06 22:27 | 33.94015 | -118.38666 | 123 ft | 23 kts | 83° |
| 2026-05-06 22:27 | 33.94034 | -118.38480 | 125 ft | 22 kts | 83° |
| 2026-05-06 22:27 | 33.94052 | -118.38299 | 125 ft | 21 kts | 83° |
| 2026-05-06 22:27 | 33.94068 | -118.38131 | 125 ft | 10 kts | 82° |
| 2026-05-06 22:28 | 33.94076 | -118.38061 | 125 ft | 8 kts | 84° |
| 2026-05-06 22:28 | 33.94052 | -118.38004 | 125 ft | 8 kts | 155° |
| 2026-05-06 22:28 | 33.93998 | -118.38007 | 123 ft | 8 kts | 214° |
| 2026-05-06 22:28 | 33.93979 | -118.38077 | 125 ft | 10 kts | 263° |
| 2026-05-06 22:29 | 33.93977 | -118.38096 | 125 ft | 0 kts | 263° |
| 2026-05-06 22:29 | 33.93967 | -118.38197 | 121 ft | 40 kts | 263° |
| 2026-05-06 22:29 | 33.93903 | -118.38823 | 123 ft | 109 kts | 263° |
| 2026-05-06 22:30 | 33.93780 | -118.39968 | 140 ft | 161 kts | 261° |
| 2026-05-06 22:30 | 33.93673 | -118.40890 | 407 ft | 171 kts | 262° |
| 2026-05-06 22:30 | 33.93538 | -118.42309 | 1293 ft | 163 kts | 263° |
| 2026-05-06 22:30 | 33.93398 | -118.43701 | 2068 ft | 173 kts | 262° |
| 2026-05-06 22:31 | 33.93127 | -118.45752 | 2528 ft | 204 kts | 250° |
| 2026-05-06 22:31 | 33.92293 | -118.47253 | 2716 ft | 226 kts | 231° |
| 2026-05-06 22:31 | 33.91285 | -118.48752 | 3145 ft | 236 kts | 232° |
| 2026-05-06 22:31 | 33.90212 | -118.50315 | 3515 ft | 250 kts | 231° |
| 2026-05-06 22:32 | 33.89452 | -118.51395 | 3718 ft | 261 kts | 231° |
| 2026-05-06 22:32 | 33.88257 | -118.53090 | 4338 ft | 268 kts | 231° |
| 2026-05-06 22:32 | 33.87023 | -118.54786 | 5102 ft | 273 kts | 224° |
| 2026-05-06 22:32 | 33.85344 | -118.55881 | 5810 ft | 279 kts | 191° |
| 2026-05-06 22:33 | 33.83461 | -118.55866 | 6837 ft | 265 kts | 168° |
| 2026-05-06 22:33 | 33.81687 | -118.55401 | 7709 ft | 262 kts | 165° |
| 2026-05-06 22:33 | 33.79893 | -118.54880 | 8331 ft | 267 kts | 165° |
| 2026-05-06 22:33 | 33.78065 | -118.54356 | 8954 ft | 273 kts | 165° |
| 2026-05-06 22:34 | 33.76196 | -118.53836 | 9610 ft | 277 kts | 165° |
| 2026-05-06 22:34 | 33.74335 | -118.53329 | 10311 ft | 279 kts | 165° |
| 2026-05-06 22:34 | 33.72438 | -118.52817 | 10919 ft | 282 kts | 166° |
| 2026-05-06 22:34 | 33.70487 | -118.52334 | 11347 ft | 295 kts | 167° |
| 2026-05-06 22:35 | 33.68390 | -118.51835 | 11515 ft | 317 kts | 167° |
| 2026-05-06 22:35 | 33.66154 | -118.51302 | 11671 ft | 339 kts | 167° |
| 2026-05-06 22:35 | 33.63769 | -118.50732 | 11801 ft | 360 kts | 167° |
| 2026-05-06 22:35 | 33.61268 | -118.50054 | 11974 ft | 377 kts | 158° |
| 2026-05-06 22:36 | 33.59047 | -118.48395 | 12357 ft | 381 kts | 132° |
| 2026-05-06 22:36 | 33.57625 | -118.45758 | 12925 ft | 377 kts | 108° |
| 2026-05-06 22:36 | 33.57133 | -118.42687 | 13003 ft | 375 kts | 89° |
| 2026-05-06 22:36 | 33.57355 | -118.39632 | 13025 ft | 372 kts | 80° |
| 2026-05-06 22:37 | 33.57743 | -118.36543 | 13232 ft | 379 kts | 79° |
| 2026-05-06 22:37 | 33.58149 | -118.33415 | 13909 ft | 380 kts | 79° |
| 2026-05-06 22:37 | 33.58549 | -118.30272 | 14493 ft | 382 kts | 79° |
| 2026-05-06 22:37 | 33.58938 | -118.27125 | 15051 ft | 384 kts | 79° |
| 2026-05-06 22:38 | 33.59322 | -118.23937 | 15589 ft | 387 kts | 79° |
| 2026-05-06 22:38 | 33.59700 | -118.20732 | 16139 ft | 390 kts | 80° |
| 2026-05-06 22:38 | 33.60078 | -118.17492 | 16648 ft | 393 kts | 80° |
| 2026-05-06 22:38 | 33.60454 | -118.14239 | 17195 ft | 395 kts | 80° |
| 2026-05-06 22:39 | 33.60831 | -118.10968 | 17722 ft | 398 kts | 80° |
| 2026-05-06 22:39 | 33.61205 | -118.07712 | 18241 ft | 401 kts | 80° |
| 2026-05-06 22:39 | 33.61585 | -118.04404 | 18730 ft | 403 kts | 80° |
| 2026-05-06 22:39 | 33.61969 | -118.01053 | 19194 ft | 406 kts | 80° |
| 2026-05-06 22:40 | 33.62353 | -117.97689 | 19648 ft | 408 kts | 80° |
| 2026-05-06 22:40 | 33.62739 | -117.94302 | 20112 ft | 411 kts | 80° |
| 2026-05-06 22:40 | 33.63126 | -117.90895 | 20572 ft | 414 kts | 80° |
| 2026-05-06 22:40 | 33.63517 | -117.87456 | 21039 ft | 416 kts | 80° |
| 2026-05-06 22:41 | 33.64091 | -117.80557 | 21919 ft | 423 kts | 89° |
| 2026-05-06 22:41 | 33.63814 | -117.77024 | 22343 ft | 429 kts | 98° |
| 2026-05-06 22:41 | 33.63071 | -117.73535 | 22785 ft | 433 kts | 104° |
| 2026-05-06 22:42 | 33.62200 | -117.70081 | 23222 ft | 435 kts | 105° |
| 2026-05-06 22:42 | 33.61298 | -117.66591 | 23627 ft | 438 kts | 105° |
| 2026-05-06 22:42 | 33.60398 | -117.63089 | 23939 ft | 442 kts | 105° |
| 2026-05-06 22:42 | 33.59500 | -117.59551 | 24263 ft | 445 kts | 104° |
| 2026-05-06 22:43 | 33.58608 | -117.55987 | 24592 ft | 447 kts | 104° |
| 2026-05-06 22:43 | 33.57718 | -117.52406 | 24913 ft | 450 kts | 104° |
| 2026-05-06 22:43 | 33.56823 | -117.48796 | 25212 ft | 453 kts | 104° |
| 2026-05-06 22:43 | 33.55936 | -117.45213 | 25522 ft | 456 kts | 104° |
| 2026-05-06 22:44 | 33.55030 | -117.41564 | 25827 ft | 458 kts | 104° |
| 2026-05-06 22:44 | 33.54116 | -117.37885 | 26116 ft | 462 kts | 105° |
| 2026-05-06 22:44 | 33.53193 | -117.34180 | 26374 ft | 466 kts | 105° |
| 2026-05-06 22:44 | 33.52264 | -117.30454 | 26702 ft | 467 kts | 105° |
| 2026-05-06 22:45 | 33.51331 | -117.26724 | 27003 ft | 469 kts | 105° |
| 2026-05-06 22:45 | 33.50563 | -117.22912 | 27227 ft | 472 kts | 98° |
| 2026-05-06 22:45 | 33.50283 | -117.18993 | 27466 ft | 473 kts | 89° |
| 2026-05-06 22:45 | 33.50242 | -117.15097 | 27782 ft | 474 kts | 89° |
| 2026-05-06 22:46 | 33.50232 | -117.11153 | 28133 ft | 475 kts | 89° |
| 2026-05-06 22:46 | 33.50221 | -117.07185 | 28501 ft | 476 kts | 89° |
| 2026-05-06 22:46 | 33.50196 | -117.03218 | 28837 ft | 476 kts | 89° |
| 2026-05-06 22:46 | 33.50156 | -116.99248 | 29211 ft | 477 kts | 89° |
| 2026-05-06 22:47 | 33.50105 | -116.95274 | 29542 ft | 478 kts | 90° |
| 2026-05-06 22:47 | 33.50047 | -116.91298 | 29893 ft | 479 kts | 90° |
| 2026-05-06 22:47 | 33.49985 | -116.87302 | 30192 ft | 480 kts | 90° |
| 2026-05-06 22:47 | 33.49921 | -116.83296 | 30459 ft | 481 kts | 90° |
| 2026-05-06 22:48 | 33.49857 | -116.79295 | 30753 ft | 481 kts | 90° |
| 2026-05-06 22:48 | 33.49792 | -116.75334 | 31044 ft | 482 kts | 90° |
| 2026-05-06 22:48 | 33.49726 | -116.71315 | 31263 ft | 484 kts | 91° |
| 2026-05-06 22:48 | 33.49659 | -116.67282 | 31505 ft | 484 kts | 91° |
| 2026-05-06 22:49 | 33.49590 | -116.63248 | 31819 ft | 483 kts | 91° |
| 2026-05-06 22:49 | 33.49520 | -116.59225 | 32135 ft | 483 kts | 91° |
| 2026-05-06 22:49 | 33.49449 | -116.55197 | 32369 ft | 484 kts | 91° |
| 2026-05-06 22:49 | 33.49377 | -116.51166 | 32590 ft | 485 kts | 91° |
| 2026-05-06 22:50 | 33.49305 | -116.47181 | 32871 ft | 484 kts | 91° |
| 2026-05-06 22:50 | 33.49230 | -116.43157 | 33132 ft | 485 kts | 91° |
| 2026-05-06 22:50 | 33.49159 | -116.39107 | 33303 ft | 487 kts | 91° |
| 2026-05-06 22:50 | 33.49097 | -116.35056 | 33504 ft | 488 kts | 91° |
| 2026-05-06 22:51 | 33.49039 | -116.30991 | 33731 ft | 488 kts | 91° |
| 2026-05-06 22:51 | 33.48983 | -116.26937 | 33944 ft | 488 kts | 91° |
| 2026-05-06 22:51 | 33.48923 | -116.22861 | 34095 ft | 489 kts | 91° |
| 2026-05-06 22:51 | 33.48860 | -116.18798 | 34313 ft | 488 kts | 91° |
| 2026-05-06 22:52 | 33.48795 | -116.14737 | 34468 ft | 489 kts | 92° |
| 2026-05-06 22:52 | 33.48728 | -116.10649 | 34587 ft | 491 kts | 92° |
| 2026-05-06 22:52 | 33.48695 | -116.06553 | 34692 ft | 493 kts | 88° |
| 2026-05-06 22:52 | 33.49040 | -116.02518 | 34842 ft | 494 kts | 80° |
| 2026-05-06 22:53 | 33.49874 | -115.98544 | 35018 ft | 493 kts | 70° |
| 2026-05-06 22:53 | 33.51019 | -115.94671 | 35205 ft | 493 kts | 69° |
| 2026-05-06 22:53 | 33.52208 | -115.90813 | 35335 ft | 494 kts | 69° |
| 2026-05-06 22:53 | 33.53394 | -115.86950 | 35483 ft | 495 kts | 69° |
| 2026-05-06 22:54 | 33.54564 | -115.83063 | 35643 ft | 495 kts | 70° |
| 2026-05-06 22:54 | 33.55716 | -115.79164 | 35765 ft | 497 kts | 70° |
| 2026-05-06 22:54 | 33.56858 | -115.75245 | 35790 ft | 500 kts | 70° |
| 2026-05-06 22:55 | 33.59147 | -115.67353 | 35996 ft | 503 kts | 70° |
| 2026-05-06 22:55 | 33.60289 | -115.63418 | 36097 ft | 505 kts | 71° |
| 2026-05-06 22:55 | 33.61265 | -115.59374 | 36132 ft | 507 kts | 79° |
| 2026-05-06 22:56 | 33.61794 | -115.50962 | 36285 ft | 507 kts | 94° |
| 2026-05-06 22:56 | 33.61501 | -115.42487 | 36424 ft | 511 kts | 95° |
| 2026-05-06 22:57 | 33.61208 | -115.33950 | 36547 ft | 513 kts | 94° |
| 2026-05-06 22:57 | 33.60971 | -115.25369 | 36631 ft | 517 kts | 94° |
| 2026-05-06 22:58 | 33.60750 | -115.16790 | 36755 ft | 519 kts | 94° |
| 2026-05-06 22:58 | 33.60521 | -115.08142 | 36949 ft | 518 kts | 94° |
| 2026-05-06 22:59 | 33.60281 | -114.99506 | 36963 ft | 519 kts | 95° |
| 2026-05-06 22:59 | 33.60034 | -114.90856 | 36971 ft | 520 kts | 95° |
| 2026-05-06 23:00 | 33.59783 | -114.82240 | 36976 ft | 521 kts | 95° |
| 2026-05-06 23:00 | 33.59256 | -114.73601 | 36959 ft | 517 kts | 105° |
| 2026-05-06 23:01 | 33.57685 | -114.65212 | 36965 ft | 516 kts | 108° |
| 2026-05-06 23:01 | 33.56005 | -114.56842 | 36966 ft | 517 kts | 108° |
| 2026-05-06 23:02 | 33.54367 | -114.48435 | 36972 ft | 519 kts | 108° |
| 2026-05-06 23:02 | 33.52759 | -114.40066 | 36994 ft | 519 kts | 108° |
| 2026-05-06 23:03 | 33.51158 | -114.31622 | 36984 ft | 521 kts | 108° |
| 2026-05-06 23:03 | 33.49542 | -114.23137 | 36967 ft | 522 kts | 108° |
| 2026-05-06 23:04 | 33.47912 | -114.14658 | 36974 ft | 523 kts | 109° |
| 2026-05-06 23:04 | 33.46281 | -114.06223 | 36982 ft | 523 kts | 109° |
| 2026-05-06 23:05 | 33.44636 | -113.97750 | 36969 ft | 523 kts | 109° |
| 2026-05-06 23:05 | 33.42980 | -113.89253 | 36965 ft | 523 kts | 109° |
| 2026-05-06 23:06 | 33.41322 | -113.80768 | 36957 ft | 524 kts | 110° |
| 2026-05-06 23:06 | 33.39659 | -113.72339 | 36958 ft | 523 kts | 111° |
| 2026-05-06 23:07 | 33.37522 | -113.64074 | 36967 ft | 519 kts | 116° |
| 2026-05-06 23:07 | 33.35183 | -113.55896 | 36947 ft | 520 kts | 116° |
| 2026-05-06 23:08 | 33.32858 | -113.47713 | 36954 ft | 521 kts | 116° |
| 2026-05-06 23:08 | 33.30579 | -113.39546 | 36958 ft | 521 kts | 116° |
| 2026-05-06 23:09 | 33.28294 | -113.31317 | 36958 ft | 522 kts | 116° |
| 2026-05-06 23:09 | 33.26001 | -113.23085 | 36956 ft | 522 kts | 116° |
| 2026-05-06 23:10 | 33.23701 | -113.14865 | 36947 ft | 523 kts | 117° |
| 2026-05-06 23:10 | 33.21399 | -113.06669 | 36947 ft | 523 kts | 116° |
| 2026-05-06 23:11 | 33.19083 | -112.98444 | 36948 ft | 523 kts | 117° |
| 2026-05-06 23:11 | 33.16759 | -112.90210 | 36952 ft | 523 kts | 117° |
| 2026-05-06 23:12 | 33.14430 | -112.81984 | 36981 ft | 523 kts | 117° |
| 2026-05-06 23:12 | 33.12095 | -112.73760 | 36950 ft | 523 kts | 117° |
| 2026-05-06 23:13 | 33.09771 | -112.65599 | 36974 ft | 523 kts | 117° |
| 2026-05-06 23:13 | 33.07431 | -112.57402 | 36973 ft | 522 kts | 117° |
| 2026-05-06 23:14 | 33.05093 | -112.49207 | 36972 ft | 522 kts | 117° |
| 2026-05-06 23:14 | 33.02831 | -112.40983 | 36971 ft | 522 kts | 116° |
| 2026-05-06 23:15 | 33.00610 | -112.32815 | 36951 ft | 521 kts | 116° |
| 2026-05-06 23:15 | 32.98364 | -112.24608 | 36949 ft | 521 kts | 117° |
| 2026-05-06 23:16 | 32.96107 | -112.16423 | 36950 ft | 521 kts | 117° |
| 2026-05-06 23:16 | 32.93841 | -112.08246 | 36944 ft | 521 kts | 117° |
| 2026-05-06 23:17 | 32.91565 | -112.00053 | 36948 ft | 521 kts | 117° |
| 2026-05-06 23:17 | 32.89302 | -111.91927 | 36947 ft | 521 kts | 117° |
| 2026-05-06 23:18 | 32.87019 | -111.83751 | 36937 ft | 521 kts | 117° |
| 2026-05-06 23:18 | 32.85872 | -111.79659 | 36810 ft | 520 kts | 111° |
| 2026-05-06 23:18 | 32.84737 | -111.75635 | 36893 ft | 504 kts | 112° |
| 2026-05-06 23:18 | 32.83649 | -111.71736 | 36894 ft | 490 kts | 112° |
| 2026-05-06 23:19 | 32.82584 | -111.67924 | 36919 ft | 484 kts | 112° |
| 2026-05-06 23:19 | 32.80448 | -111.60330 | 36946 ft | 486 kts | 113° |
| 2026-05-06 23:20 | 32.78301 | -111.52740 | 36962 ft | 490 kts | 113° |
| 2026-05-06 23:20 | 32.76120 | -111.45041 | 36977 ft | 493 kts | 114° |
| 2026-05-06 23:21 | 32.73923 | -111.37302 | 36995 ft | 496 kts | 114° |
| 2026-05-06 23:21 | 32.71713 | -111.29531 | 36994 ft | 498 kts | 114° |
| 2026-05-06 23:22 | 32.69501 | -111.21773 | 36995 ft | 500 kts | 114° |
| 2026-05-06 23:22 | 32.67264 | -111.13954 | 36988 ft | 501 kts | 114° |
| 2026-05-06 23:23 | 32.65016 | -111.06113 | 36978 ft | 502 kts | 115° |
| 2026-05-06 23:23 | 32.62762 | -110.98275 | 36962 ft | 503 kts | 115° |
| 2026-05-06 23:24 | 32.60512 | -110.90472 | 36955 ft | 503 kts | 115° |
| 2026-05-06 23:24 | 32.58242 | -110.82619 | 36954 ft | 504 kts | 115° |
| 2026-05-06 23:25 | 32.55963 | -110.74756 | 36957 ft | 505 kts | 116° |
| 2026-05-06 23:25 | 32.53675 | -110.66885 | 36953 ft | 505 kts | 116° |
| 2026-05-06 23:26 | 32.51384 | -110.59023 | 36952 ft | 505 kts | 116° |
| 2026-05-06 23:26 | 32.49098 | -110.51200 | 36952 ft | 506 kts | 117° |
| 2026-05-06 23:27 | 32.46787 | -110.43312 | 36948 ft | 508 kts | 117° |
| 2026-05-06 23:27 | 32.44465 | -110.35405 | 36942 ft | 509 kts | 117° |
| 2026-05-06 23:28 | 32.42134 | -110.27493 | 36942 ft | 510 kts | 118° |
| 2026-05-06 23:28 | 32.39809 | -110.19616 | 36942 ft | 511 kts | 118° |
| 2026-05-06 23:29 | 32.37463 | -110.11693 | 36943 ft | 511 kts | 118° |
| 2026-05-06 23:29 | 32.35111 | -110.03769 | 36956 ft | 511 kts | 118° |
| 2026-05-06 23:30 | 32.32756 | -109.95845 | 36945 ft | 510 kts | 118° |
| 2026-05-06 23:30 | 32.30403 | -109.87953 | 36942 ft | 509 kts | 119° |
| 2026-05-06 23:31 | 32.28650 | -109.79807 | 36953 ft | 523 kts | 107° |
| 2026-05-06 23:31 | 32.27663 | -109.71257 | 36940 ft | 527 kts | 105° |
| 2026-05-06 23:32 | 32.26723 | -109.62675 | 36935 ft | 527 kts | 105° |
| 2026-05-06 23:32 | 32.25721 | -109.54090 | 36930 ft | 529 kts | 106° |
| 2026-05-06 23:33 | 32.24667 | -109.45465 | 36925 ft | 531 kts | 106° |
| 2026-05-06 23:33 | 32.23603 | -109.36877 | 36924 ft | 533 kts | 106° |
| 2026-05-06 23:34 | 32.22526 | -109.28203 | 36921 ft | 535 kts | 106° |
| 2026-05-06 23:34 | 32.21445 | -109.19511 | 36919 ft | 536 kts | 106° |
| 2026-05-06 23:35 | 32.20356 | -109.10799 | 36924 ft | 536 kts | 107° |
| 2026-05-06 23:35 | 32.19269 | -109.02156 | 36946 ft | 536 kts | 107° |
| 2026-05-06 23:36 | 32.18168 | -108.93447 | 36966 ft | 536 kts | 107° |
| 2026-05-06 23:36 | 32.17063 | -108.84768 | 37001 ft | 535 kts | 107° |
| 2026-05-06 23:37 | 32.15951 | -108.76079 | 37013 ft | 535 kts | 107° |
| 2026-05-06 23:37 | 32.14843 | -108.67472 | 37004 ft | 534 kts | 107° |
| 2026-05-06 23:38 | 32.13720 | -108.58802 | 36998 ft | 534 kts | 107° |
| 2026-05-06 23:38 | 32.12593 | -108.50145 | 36967 ft | 534 kts | 107° |
| 2026-05-06 23:39 | 32.11460 | -108.41481 | 36937 ft | 535 kts | 107° |
| 2026-05-06 23:39 | 32.10319 | -108.32814 | 36915 ft | 535 kts | 107° |
| 2026-05-06 23:40 | 32.09171 | -108.24142 | 36914 ft | 536 kts | 107° |
| 2026-05-06 23:40 | 32.08024 | -108.15518 | 36913 ft | 536 kts | 107° |
| 2026-05-06 23:41 | 32.06863 | -108.06832 | 36908 ft | 536 kts | 108° |
| 2026-05-06 23:41 | 32.05695 | -107.98143 | 36938 ft | 537 kts | 108° |
| 2026-05-06 23:42 | 32.04520 | -107.89444 | 36952 ft | 538 kts | 108° |
| 2026-05-06 23:42 | 32.03337 | -107.80743 | 36967 ft | 538 kts | 108° |
| 2026-05-06 23:43 | 32.02158 | -107.72103 | 36964 ft | 538 kts | 108° |
| 2026-05-06 23:43 | 32.00962 | -107.63394 | 36957 ft | 538 kts | 108° |
| 2026-05-06 23:44 | 31.99761 | -107.54688 | 36913 ft | 538 kts | 108° |
| 2026-05-06 23:44 | 31.98555 | -107.45995 | 36887 ft | 538 kts | 108° |
| 2026-05-06 23:45 | 31.97352 | -107.37362 | 36880 ft | 537 kts | 108° |
| 2026-05-06 23:45 | 31.96134 | -107.28675 | 36881 ft | 537 kts | 108° |
| 2026-05-06 23:46 | 31.94912 | -107.20003 | 36882 ft | 537 kts | 109° |
| 2026-05-06 23:46 | 31.93683 | -107.11322 | 36864 ft | 537 kts | 109° |
| 2026-05-06 23:47 | 31.92447 | -107.02641 | 36919 ft | 538 kts | 109° |
| 2026-05-06 23:47 | 31.91210 | -106.93999 | 36962 ft | 540 kts | 109° |
| 2026-05-06 23:48 | 31.89955 | -106.85274 | 37012 ft | 542 kts | 109° |
| 2026-05-06 23:48 | 31.88692 | -106.76527 | 37035 ft | 542 kts | 109° |
| 2026-05-06 23:49 | 31.87424 | -106.67783 | 37028 ft | 542 kts | 109° |
| 2026-05-06 23:49 | 31.86161 | -106.59116 | 37022 ft | 541 kts | 109° |
| 2026-05-06 23:50 | 31.84886 | -106.50418 | 37011 ft | 539 kts | 109° |
| 2026-05-06 23:50 | 31.82968 | -106.37417 | 37020 ft | 537 kts | 109° |
| 2026-05-06 23:51 | 31.81694 | -106.28828 | 37004 ft | 536 kts | 109° |
| 2026-05-06 23:51 | 31.80548 | -106.20155 | 36967 ft | 537 kts | 107° |
| 2026-05-06 23:52 | 31.79568 | -106.11454 | 36935 ft | 537 kts | 107° |
| 2026-05-06 23:52 | 31.78582 | -106.02748 | 36894 ft | 537 kts | 107° |
| 2026-05-06 23:53 | 31.77556 | -105.94058 | 36858 ft | 538 kts | 107° |
| 2026-05-06 23:53 | 31.76503 | -105.85328 | 36865 ft | 540 kts | 107° |
| 2026-05-06 23:54 | 31.75449 | -105.76657 | 36868 ft | 541 kts | 107° |
| 2026-05-06 23:54 | 31.74379 | -105.67880 | 36865 ft | 543 kts | 107° |
| 2026-05-06 23:55 | 31.73303 | -105.59091 | 36874 ft | 544 kts | 107° |
| 2026-05-06 23:55 | 31.72218 | -105.50276 | 36858 ft | 546 kts | 107° |
| 2026-05-06 23:56 | 31.71133 | -105.41510 | 36861 ft | 546 kts | 107° |
| 2026-05-06 23:56 | 31.70034 | -105.32688 | 36861 ft | 547 kts | 107° |
| 2026-05-06 23:57 | 31.68926 | -105.23841 | 36855 ft | 547 kts | 107° |
| 2026-05-06 23:57 | 31.67813 | -105.14997 | 36855 ft | 547 kts | 107° |
| 2026-05-06 23:58 | 31.66696 | -105.06174 | 36854 ft | 546 kts | 107° |
| 2026-05-06 23:58 | 31.65582 | -104.97432 | 36854 ft | 544 kts | 107° |
| 2026-05-06 23:59 | 31.64458 | -104.88657 | 36839 ft | 543 kts | 107° |
| 2026-05-06 23:59 | 31.63331 | -104.79916 | 36847 ft | 541 kts | 108° |
| 2026-05-07 00:00 | 31.62200 | -104.71196 | 36839 ft | 540 kts | 108° |
| 2026-05-07 00:00 | 31.61259 | -104.63964 | 36848 ft | 539 kts | 108° |
| 2026-05-07 00:01 | 31.59941 | -104.53894 | 36838 ft | 537 kts | 108° |
| 2026-05-07 00:01 | 31.58801 | -104.45241 | 36844 ft | 536 kts | 108° |
| 2026-05-07 00:02 | 31.57660 | -104.36625 | 36838 ft | 535 kts | 108° |
| 2026-05-07 00:02 | 31.56510 | -104.27994 | 36839 ft | 535 kts | 108° |
| 2026-05-07 00:03 | 31.55363 | -104.19430 | 36844 ft | 536 kts | 108° |
| 2026-05-07 00:03 | 31.54198 | -104.10775 | 36830 ft | 538 kts | 108° |
| 2026-05-07 00:04 | 31.53025 | -104.02102 | 36828 ft | 540 kts | 108° |
| 2026-05-07 00:04 | 31.51842 | -103.93399 | 36821 ft | 541 kts | 108° |
| 2026-05-07 00:05 | 31.50651 | -103.84683 | 36838 ft | 543 kts | 108° |
| 2026-05-07 00:05 | 31.49460 | -103.76008 | 36868 ft | 543 kts | 108° |
| 2026-05-07 00:06 | 31.48253 | -103.67254 | 36903 ft | 544 kts | 108° |
| 2026-05-07 00:06 | 31.47040 | -103.58507 | 36935 ft | 544 kts | 108° |
| 2026-05-07 00:07 | 31.45898 | -103.49737 | 36943 ft | 546 kts | 107° |
| 2026-05-07 00:07 | 31.44856 | -103.40981 | 36935 ft | 547 kts | 107° |
| 2026-05-07 00:08 | 31.43804 | -103.32166 | 36905 ft | 547 kts | 107° |
| 2026-05-07 00:08 | 31.42724 | -103.23343 | 36865 ft | 547 kts | 107° |
| 2026-05-07 00:09 | 31.41629 | -103.14523 | 36829 ft | 548 kts | 107° |
| 2026-05-07 00:09 | 31.40534 | -103.05764 | 36806 ft | 548 kts | 107° |
| 2026-05-07 00:10 | 31.39427 | -102.96943 | 36815 ft | 548 kts | 107° |
| 2026-05-07 00:10 | 31.38313 | -102.88119 | 36813 ft | 548 kts | 107° |
| 2026-05-07 00:11 | 31.37194 | -102.79292 | 36815 ft | 548 kts | 107° |
| 2026-05-07 00:11 | 31.36069 | -102.70473 | 36822 ft | 548 kts | 107° |
| 2026-05-07 00:12 | 31.34938 | -102.61658 | 36818 ft | 548 kts | 107° |
| 2026-05-07 00:12 | 31.33809 | -102.52907 | 36815 ft | 548 kts | 107° |
| 2026-05-07 00:13 | 31.32666 | -102.44095 | 36825 ft | 548 kts | 107° |
| 2026-05-07 00:13 | 31.31517 | -102.35289 | 36818 ft | 547 kts | 107° |
| 2026-05-07 00:14 | 31.30365 | -102.26505 | 36817 ft | 547 kts | 107° |
| 2026-05-07 00:14 | 31.29215 | -102.17777 | 36824 ft | 545 kts | 108° |
| 2026-05-07 00:15 | 31.28057 | -102.09040 | 36827 ft | 543 kts | 108° |
| 2026-05-07 00:15 | 31.26896 | -102.00329 | 36833 ft | 542 kts | 108° |
| 2026-05-07 00:16 | 31.25732 | -101.91637 | 36838 ft | 540 kts | 108° |
| 2026-05-07 00:16 | 31.24567 | -101.82992 | 36846 ft | 538 kts | 108° |
| 2026-05-07 00:17 | 31.23409 | -101.74437 | 36855 ft | 536 kts | 108° |
| 2026-05-07 00:17 | 31.22242 | -101.65859 | 36871 ft | 533 kts | 108° |
| 2026-05-07 00:18 | 31.21072 | -101.57313 | 36877 ft | 532 kts | 108° |
| 2026-05-07 00:18 | 31.19898 | -101.48781 | 36891 ft | 532 kts | 108° |
| 2026-05-07 00:19 | 31.18720 | -101.40253 | 36903 ft | 533 kts | 108° |
| 2026-05-07 00:19 | 31.17572 | -101.31760 | 36901 ft | 537 kts | 105° |
| 2026-05-07 00:20 | 31.16813 | -101.23022 | 36920 ft | 543 kts | 103° |
| 2026-05-07 00:20 | 31.16209 | -101.14216 | 36923 ft | 546 kts | 102° |
| 2026-05-07 00:21 | 31.15575 | -101.05371 | 36924 ft | 548 kts | 103° |
| 2026-05-07 00:21 | 31.14896 | -100.96550 | 36929 ft | 550 kts | 103° |
| 2026-05-07 00:22 | 31.14188 | -100.87652 | 36929 ft | 551 kts | 103° |
| 2026-05-07 00:22 | 31.13475 | -100.78762 | 36934 ft | 551 kts | 103° |
| 2026-05-07 00:23 | 31.12759 | -100.69858 | 36950 ft | 551 kts | 103° |
| 2026-05-07 00:23 | 31.12042 | -100.61017 | 36948 ft | 549 kts | 103° |
| 2026-05-07 00:24 | 31.11319 | -100.52165 | 36953 ft | 547 kts | 103° |
| 2026-05-07 00:24 | 31.10590 | -100.43336 | 36953 ft | 546 kts | 103° |
| 2026-05-07 00:25 | 31.09857 | -100.34537 | 36951 ft | 544 kts | 103° |
| 2026-05-07 00:25 | 31.09121 | -100.25765 | 36944 ft | 543 kts | 103° |
| 2026-05-07 00:26 | 31.08384 | -100.17062 | 36938 ft | 542 kts | 103° |
| 2026-05-07 00:26 | 31.07638 | -100.08329 | 36945 ft | 541 kts | 103° |
| 2026-05-07 00:27 | 31.06886 | -99.99586 | 36950 ft | 542 kts | 103° |
| 2026-05-07 00:27 | 31.06127 | -99.90844 | 36946 ft | 543 kts | 103° |
| 2026-05-07 00:28 | 31.05365 | -99.82127 | 36951 ft | 544 kts | 103° |
| 2026-05-07 00:28 | 31.04591 | -99.73346 | 36950 ft | 545 kts | 103° |
| 2026-05-07 00:29 | 31.03811 | -99.64550 | 36960 ft | 546 kts | 103° |
| 2026-05-07 00:30 | 31.02233 | -99.46973 | 36989 ft | 547 kts | 103° |
| 2026-05-07 00:30 | 31.01433 | -99.38158 | 36983 ft | 547 kts | 103° |
| 2026-05-07 00:31 | 31.00629 | -99.29368 | 36989 ft | 546 kts | 103° |
| 2026-05-07 00:31 | 30.99817 | -99.20563 | 36979 ft | 545 kts | 103° |
| 2026-05-07 00:32 | 30.99003 | -99.11793 | 36978 ft | 544 kts | 103° |
| 2026-05-07 00:32 | 30.98189 | -99.03104 | 36970 ft | 543 kts | 103° |
| 2026-05-07 00:33 | 30.97364 | -98.94352 | 36973 ft | 542 kts | 103° |
| 2026-05-07 00:33 | 30.96536 | -98.85619 | 36992 ft | 542 kts | 103° |
| 2026-05-07 00:34 | 30.95538 | -98.76939 | 36990 ft | 538 kts | 107° |
| 2026-05-07 00:34 | 30.94294 | -98.68431 | 37006 ft | 537 kts | 107° |
| 2026-05-07 00:35 | 30.93035 | -98.59848 | 37003 ft | 537 kts | 107° |
| 2026-05-07 00:35 | 30.91821 | -98.51261 | 36992 ft | 537 kts | 107° |
| 2026-05-07 00:36 | 30.90624 | -98.42690 | 36996 ft | 537 kts | 107° |
| 2026-05-07 00:36 | 30.89425 | -98.34153 | 36987 ft | 537 kts | 107° |
| 2026-05-07 00:37 | 30.88213 | -98.25592 | 37003 ft | 537 kts | 107° |
| 2026-05-07 00:37 | 30.86990 | -98.17009 | 36996 ft | 537 kts | 107° |
| 2026-05-07 00:38 | 30.85766 | -98.08449 | 37000 ft | 536 kts | 107° |
| 2026-05-07 00:38 | 30.84537 | -97.99900 | 36983 ft | 536 kts | 107° |
| 2026-05-07 00:39 | 30.83308 | -97.91397 | 36973 ft | 535 kts | 107° |
| 2026-05-07 00:39 | 30.82055 | -97.82866 | 36991 ft | 535 kts | 107° |
| 2026-05-07 00:40 | 30.80798 | -97.74362 | 36997 ft | 535 kts | 107° |
| 2026-05-07 00:40 | 30.79527 | -97.65800 | 36600 ft | 541 kts | 107° |
| 2026-05-07 00:41 | 30.78885 | -97.61490 | 36017 ft | 540 kts | 107° |
| 2026-05-07 00:41 | 30.78246 | -97.57192 | 35318 ft | 540 kts | 107° |
| 2026-05-07 00:41 | 30.77612 | -97.52944 | 34606 ft | 540 kts | 106° |
| 2026-05-07 00:41 | 30.76970 | -97.48648 | 33822 ft | 542 kts | 106° |
| 2026-05-07 00:42 | 30.76320 | -97.44318 | 32982 ft | 542 kts | 106° |
| 2026-05-07 00:42 | 30.75672 | -97.40000 | 32187 ft | 542 kts | 106° |
| 2026-05-07 00:42 | 30.75024 | -97.35696 | 31385 ft | 542 kts | 106° |
| 2026-05-07 00:42 | 30.74372 | -97.31379 | 30541 ft | 543 kts | 105° |
| 2026-05-07 00:43 | 30.73717 | -97.27053 | 29712 ft | 542 kts | 105° |
| 2026-05-07 00:43 | 30.73068 | -97.22766 | 29074 ft | 536 kts | 105° |
| 2026-05-07 00:43 | 30.72435 | -97.18584 | 28432 ft | 530 kts | 106° |
| 2026-05-07 00:43 | 30.71797 | -97.14395 | 27815 ft | 523 kts | 106° |
| 2026-05-07 00:44 | 30.71165 | -97.10257 | 27231 ft | 517 kts | 106° |
| 2026-05-07 00:44 | 30.70537 | -97.06156 | 26644 ft | 511 kts | 106° |
| 2026-05-07 00:44 | 30.69918 | -97.02119 | 26208 ft | 503 kts | 106° |
| 2026-05-07 00:44 | 30.69311 | -96.98159 | 25726 ft | 495 kts | 106° |
| 2026-05-07 00:45 | 30.68708 | -96.94244 | 25186 ft | 490 kts | 106° |
| 2026-05-07 00:45 | 30.68108 | -96.90370 | 24624 ft | 486 kts | 106° |
| 2026-05-07 00:45 | 30.67516 | -96.86558 | 24061 ft | 483 kts | 106° |
| 2026-05-07 00:45 | 30.66922 | -96.82737 | 23469 ft | 480 kts | 107° |
| 2026-05-07 00:46 | 30.66329 | -96.78923 | 22801 ft | 476 kts | 106° |
| 2026-05-07 00:46 | 30.65744 | -96.75165 | 22222 ft | 471 kts | 106° |
| 2026-05-07 00:46 | 30.65166 | -96.71451 | 21655 ft | 466 kts | 106° |
| 2026-05-07 00:46 | 30.64590 | -96.67775 | 21128 ft | 460 kts | 106° |
| 2026-05-07 00:47 | 30.64016 | -96.64131 | 20587 ft | 456 kts | 105° |
| 2026-05-07 00:47 | 30.63446 | -96.60527 | 20024 ft | 452 kts | 105° |
| 2026-05-07 00:47 | 30.62879 | -96.56950 | 19454 ft | 449 kts | 105° |
| 2026-05-07 00:47 | 30.62323 | -96.53446 | 18899 ft | 446 kts | 105° |
| 2026-05-07 00:48 | 30.61763 | -96.49918 | 18349 ft | 443 kts | 105° |
| 2026-05-07 00:48 | 30.61206 | -96.46414 | 17752 ft | 441 kts | 105° |
| 2026-05-07 00:48 | 30.60575 | -96.42959 | 17275 ft | 430 kts | 113° |
| 2026-05-07 00:48 | 30.59303 | -96.39935 | 16739 ft | 412 kts | 131° |
| 2026-05-07 00:49 | 30.57612 | -96.37277 | 16235 ft | 405 kts | 134° |
| 2026-05-07 00:49 | 30.55908 | -96.34691 | 15714 ft | 402 kts | 134° |
| 2026-05-07 00:49 | 30.54226 | -96.32105 | 15195 ft | 400 kts | 133° |
| 2026-05-07 00:49 | 30.52597 | -96.29554 | 14672 ft | 398 kts | 133° |
| 2026-05-07 00:50 | 30.50967 | -96.26979 | 14151 ft | 395 kts | 132° |
| 2026-05-07 00:50 | 30.49351 | -96.24422 | 13609 ft | 393 kts | 132° |
| 2026-05-07 00:50 | 30.47740 | -96.21877 | 13038 ft | 390 kts | 131° |
| 2026-05-07 00:50 | 30.46140 | -96.19353 | 12497 ft | 386 kts | 131° |
| 2026-05-07 00:51 | 30.44556 | -96.16857 | 11976 ft | 383 kts | 130° |
| 2026-05-07 00:51 | 30.43520 | -96.15224 | 11635 ft | 380 kts | 130° |
| 2026-05-07 00:51 | 30.41969 | -96.12782 | 11327 ft | 371 kts | 130° |
| 2026-05-07 00:51 | 30.40467 | -96.10412 | 11135 ft | 358 kts | 130° |
| 2026-05-07 00:52 | 30.38554 | -96.07402 | 10892 ft | 343 kts | 130° |
| 2026-05-07 00:52 | 30.37159 | -96.05219 | 10724 ft | 331 kts | 133° |
| 2026-05-07 00:52 | 30.35502 | -96.03478 | 10489 ft | 315 kts | 153° |
| 2026-05-07 00:52 | 30.33519 | -96.02504 | 10148 ft | 307 kts | 166° |
| 2026-05-07 00:53 | 30.32189 | -96.02013 | 10041 ft | 301 kts | 167° |
| 2026-05-07 00:53 | 30.30211 | -96.01309 | 9869 ft | 293 kts | 167° |
| 2026-05-07 00:53 | 30.28271 | -96.00622 | 9549 ft | 292 kts | 167° |
| 2026-05-07 00:53 | 30.26330 | -95.99926 | 9225 ft | 290 kts | 166° |
| 2026-05-07 00:54 | 30.23789 | -95.99003 | 8787 ft | 287 kts | 166° |
| 2026-05-07 00:54 | 30.21900 | -95.98311 | 8525 ft | 283 kts | 166° |
| 2026-05-07 00:54 | 30.20641 | -95.97848 | 8450 ft | 277 kts | 166° |
| 2026-05-07 00:54 | 30.18838 | -95.97184 | 8320 ft | 267 kts | 166° |
| 2026-05-07 00:55 | 30.17118 | -95.96551 | 8205 ft | 258 kts | 166° |
| 2026-05-07 00:55 | 30.15458 | -95.95848 | 8068 ft | 253 kts | 153° |
| 2026-05-07 00:55 | 30.14226 | -95.94420 | 7931 ft | 251 kts | 120° |
| 2026-05-07 00:55 | 30.13729 | -95.92517 | 7894 ft | 249 kts | 96° |
| 2026-05-07 00:56 | 30.13646 | -95.90492 | 7913 ft | 257 kts | 92° |
| 2026-05-07 00:56 | 30.13610 | -95.87690 | 7844 ft | 267 kts | 92° |
| 2026-05-07 00:56 | 30.13590 | -95.85542 | 7817 ft | 267 kts | 92° |
| 2026-05-07 00:56 | 30.13575 | -95.84090 | 7792 ft | 266 kts | 91° |
| 2026-05-07 00:57 | 30.13551 | -95.81988 | 7756 ft | 264 kts | 92° |
| 2026-05-07 00:57 | 30.13523 | -95.79884 | 7722 ft | 260 kts | 92° |
| 2026-05-07 00:57 | 30.13493 | -95.77807 | 7691 ft | 258 kts | 92° |
| 2026-05-07 00:57 | 30.13460 | -95.75731 | 7673 ft | 258 kts | 92° |
| 2026-05-07 00:58 | 30.13426 | -95.73663 | 7641 ft | 258 kts | 92° |
| 2026-05-07 00:58 | 30.13391 | -95.71595 | 7618 ft | 258 kts | 92° |
| 2026-05-07 00:58 | 30.13355 | -95.69529 | 7586 ft | 257 kts | 92° |
| 2026-05-07 00:58 | 30.13318 | -95.67459 | 7561 ft | 258 kts | 93° |
| 2026-05-07 00:59 | 30.13242 | -95.63338 | 7507 ft | 258 kts | 93° |
| 2026-05-07 00:59 | 30.13204 | -95.61263 | 7473 ft | 259 kts | 93° |
| 2026-05-07 00:59 | 30.13164 | -95.59189 | 7441 ft | 259 kts | 92° |
| 2026-05-07 01:00 | 30.13125 | -95.57108 | 7400 ft | 259 kts | 92° |
| 2026-05-07 01:00 | 30.13085 | -95.55037 | 7372 ft | 258 kts | 93° |
| 2026-05-07 01:00 | 30.13045 | -95.52969 | 7340 ft | 258 kts | 94° |
| 2026-05-07 01:00 | 30.13004 | -95.50895 | 7297 ft | 258 kts | 94° |
| 2026-05-07 01:01 | 30.12963 | -95.48829 | 7259 ft | 258 kts | 93° |
| 2026-05-07 01:01 | 30.12921 | -95.46758 | 7226 ft | 258 kts | 92° |
| 2026-05-07 01:01 | 30.12880 | -95.44714 | 7186 ft | 258 kts | 93° |
| 2026-05-07 01:01 | 30.12839 | -95.42652 | 7154 ft | 257 kts | 93° |
| 2026-05-07 01:02 | 30.12796 | -95.40582 | 7127 ft | 257 kts | 93° |
| 2026-05-07 01:02 | 30.12754 | -95.38522 | 7068 ft | 257 kts | 93° |
| 2026-05-07 01:02 | 30.12711 | -95.36466 | 7041 ft | 256 kts | 93° |
| 2026-05-07 01:02 | 30.12668 | -95.34396 | 7014 ft | 264 kts | 93° |
| 2026-05-07 01:03 | 30.12618 | -95.32158 | 7016 ft | 291 kts | 93° |
| 2026-05-07 01:03 | 30.12568 | -95.29830 | 6944 ft | 294 kts | 92° |
| 2026-05-07 01:03 | 30.12518 | -95.27463 | 6897 ft | 296 kts | 92° |
| 2026-05-07 01:03 | 30.12467 | -95.25091 | 6847 ft | 295 kts | 92° |
| 2026-05-07 01:04 | 30.12416 | -95.22734 | 6809 ft | 294 kts | 92° |
| 2026-05-07 01:04 | 30.12365 | -95.20368 | 6781 ft | 292 kts | 92° |
| 2026-05-07 01:04 | 30.12314 | -95.18035 | 6708 ft | 289 kts | 92° |
| 2026-05-07 01:04 | 30.12262 | -95.15720 | 6696 ft | 288 kts | 92° |
| 2026-05-07 01:05 | 30.12210 | -95.13401 | 6646 ft | 288 kts | 92° |
| 2026-05-07 01:05 | 30.12160 | -95.11147 | 6584 ft | 272 kts | 92° |
| 2026-05-07 01:05 | 30.12113 | -95.09036 | 6532 ft | 255 kts | 93° |
| 2026-05-07 01:05 | 30.12068 | -95.07056 | 6506 ft | 247 kts | 93° |
| 2026-05-07 01:06 | 30.12021 | -95.05050 | 6162 ft | 254 kts | 93° |
| 2026-05-07 01:06 | 30.11951 | -95.02984 | 5645 ft | 257 kts | 99° |
| 2026-05-07 01:06 | 30.11241 | -95.01159 | 5217 ft | 249 kts | 137° |
| 2026-05-07 01:06 | 30.09808 | -95.00165 | 4977 ft | 234 kts | 164° |
| 2026-05-07 01:07 | 30.08267 | -94.99818 | 4810 ft | 218 kts | 179° |
| 2026-05-07 01:07 | 30.06788 | -94.99772 | 4612 ft | 210 kts | 181° |
| 2026-05-07 01:07 | 30.05332 | -94.99755 | 4368 ft | 207 kts | 181° |
| 2026-05-07 01:07 | 30.03920 | -94.99730 | 4130 ft | 206 kts | 181° |
| 2026-05-07 01:08 | 30.02512 | -94.99941 | 4025 ft | 205 kts | 210° |
| 2026-05-07 01:08 | 30.01599 | -95.01121 | 4027 ft | 201 kts | 252° |
| 2026-05-07 01:08 | 30.01303 | -95.02705 | 4025 ft | 203 kts | 259° |
| 2026-05-07 01:08 | 30.01077 | -95.04309 | 4015 ft | 202 kts | 261° |
| 2026-05-07 01:09 | 30.00889 | -95.05909 | 4007 ft | 201 kts | 263° |
| 2026-05-07 01:09 | 30.00789 | -95.07521 | 4002 ft | 201 kts | 267° |
| 2026-05-07 01:09 | 30.00754 | -95.09121 | 3947 ft | 204 kts | 269° |
| 2026-05-07 01:09 | 30.00743 | -95.10778 | 3704 ft | 206 kts | 269° |
| 2026-05-07 01:10 | 30.00739 | -95.12390 | 3442 ft | 196 kts | 269° |
| 2026-05-07 01:10 | 30.00737 | -95.13916 | 3195 ft | 184 kts | 269° |
| 2026-05-07 01:10 | 30.00735 | -95.15350 | 2968 ft | 174 kts | 270° |
| 2026-05-07 01:10 | 30.00732 | -95.16741 | 2744 ft | 171 kts | 270° |
| 2026-05-07 01:11 | 30.00730 | -95.18074 | 2570 ft | 162 kts | 271° |
| 2026-05-07 01:11 | 30.00728 | -95.19353 | 2326 ft | 155 kts | 271° |
| 2026-05-07 01:11 | 30.00726 | -95.20570 | 2129 ft | 150 kts | 271° |
| 2026-05-07 01:11 | 30.00724 | -95.21794 | 1952 ft | 154 kts | 272° |
| 2026-05-07 01:12 | 30.00723 | -95.23019 | 1729 ft | 154 kts | 273° |
| 2026-05-07 01:12 | 30.00722 | -95.24254 | 1551 ft | 155 kts | 273° |
| 2026-05-07 01:12 | 30.00721 | -95.25486 | 1342 ft | 152 kts | 274° |
| 2026-05-07 01:12 | 30.00720 | -95.26709 | 1151 ft | 153 kts | 272° |
| 2026-05-07 01:13 | 30.00719 | -95.27948 | 951 ft | 154 kts | 274° |
| 2026-05-07 01:13 | 30.00718 | -95.29166 | 778 ft | 157 kts | 273° |
| 2026-05-07 01:13 | 30.00717 | -95.30431 | 578 ft | 154 kts | 271° |
| 2026-05-07 01:13 | 30.00719 | -95.31655 | 367 ft | 153 kts | 273° |
| 2026-05-07 01:14 | 30.00716 | -95.32848 | 156 ft | 148 kts | 274° |
| 2026-05-07 01:14 | 30.00718 | -95.33982 | 101 ft | 127 kts | 270° |
| 2026-05-07 01:14 | 30.00718 | -95.34831 | 100 ft | 84 kts | 269° |
| 2026-05-07 01:14 | 30.00690 | -95.35350 | 99 ft | 55 kts | 251° |
| 2026-05-07 01:15 | 30.00541 | -95.35632 | 100 ft | 29 kts | 211° |
| 2026-05-07 01:15 | 30.00370 | -95.35650 | 100 ft | 15 kts | 180° |
| 2026-05-07 01:15 | 30.00268 | -95.35652 | 100 ft | 14 kts | 175° |
| 2026-05-07 01:15 | 30.00184 | -95.35600 | 101 ft | 14 kts | 135° |
| 2026-05-07 01:16 | 30.00101 | -95.35528 | 101 ft | 16 kts | 150° |
| 2026-05-07 01:16 | 29.99991 | -95.35485 | 101 ft | 17 kts | 178° |
| 2026-05-07 01:16 | 29.99872 | -95.35484 | 102 ft | 18 kts | 180° |
| 2026-05-07 01:16 | 29.99752 | -95.35484 | 102 ft | 17 kts | 180° |
| 2026-05-07 01:17 | 29.99636 | -95.35484 | 102 ft | 16 kts | 180° |
| 2026-05-07 01:17 | 29.99524 | -95.35483 | 102 ft | 16 kts | 180° |
| 2026-05-07 01:17 | 29.99416 | -95.35483 | 103 ft | 16 kts | 180° |
| 2026-05-07 01:17 | 29.99291 | -95.35482 | 102 ft | 21 kts | 180° |
| 2026-05-07 01:18 | 29.99176 | -95.35445 | 102 ft | 8 kts | 106° |
| 2026-05-07 01:18 | 29.99177 | -95.35383 | 102 ft | 8 kts | 90° |
| 2026-05-07 01:18 | 29.99176 | -95.35307 | 102 ft | 12 kts | 90° |
| 2026-05-07 01:18 | 29.99176 | -95.35199 | 102 ft | 15 kts | 90° |
| 2026-05-07 01:19 | 29.99175 | -95.35075 | 101 ft | 16 kts | 90° |
| 2026-05-07 01:19 | 29.99179 | -95.34944 | 102 ft | 17 kts | 88° |
| 2026-05-07 01:19 | 29.99178 | -95.34796 | 102 ft | 21 kts | 90° |
| 2026-05-07 01:19 | 29.99178 | -95.34624 | 101 ft | 21 kts | 90° |
| 2026-05-07 01:20 | 29.99178 | -95.34458 | 101 ft | 21 kts | 89° |
| 2026-05-07 01:20 | 29.99179 | -95.34294 | 101 ft | 20 kts | 89° |
| 2026-05-07 01:20 | 29.99180 | -95.34136 | 101 ft | 19 kts | 92° |
| 2026-05-07 01:20 | 29.99166 | -95.33997 | 100 ft | 16 kts | 128° |
| 2026-05-07 01:21 | 29.99063 | -95.33979 | 101 ft | 15 kts | 179° |
| 2026-05-07 01:21 | 29.98960 | -95.33979 | 101 ft | 14 kts | 181° |
| 2026-05-07 01:21 | 29.98901 | -95.33958 | 101 ft | 7 kts | 121° |
| 2026-05-07 01:21 | 29.98885 | -95.33915 | 101 ft | 0 kts | 112° |